Time;durP1;ratioP1;P1;durP2;ratioP2;P2;SDS_P1;SDS_P2;PMS_P1;PMS_P2;Temp;Humidity;BMP_temperature;BMP_pressure;BME280_temperature;BME280_humidity;BME280_pressure;Samples;Min_cycle;Max_cycle;Signal;HPM_P1;HPM_P2
2021/12/29 00:00:39;;;;;;;4.13;3.58;;;-3.50;99.90;;;;;;4991042;28;20078;-73
2021/12/29 00:03:06;;;;;;;7.47;4.40;;;-3.50;99.90;;;;;;4991228;28;20097;-73
2021/12/29 00:05:33;;;;;;;5.57;4.10;;;-3.50;99.90;;;;;;4990923;28;20046;-72
2021/12/29 00:08:01;;;;;;;5.85;4.22;;;-3.50;99.90;;;;;;4983035;28;20051;-72
2021/12/29 00:10:31;;;;;;;5.50;4.00;;;-3.50;99.90;;;;;;4989157;28;20046;-72
2021/12/29 00:12:58;;;;;;;6.80;3.70;;;-3.50;99.90;;;;;;4974846;28;20046;-72
2021/12/29 00:15:28;;;;;;;4.65;3.97;;;-3.50;99.90;;;;;;4991909;28;20047;-72
2021/12/29 00:17:58;;;;;;;5.38;3.97;;;-3.50;99.90;;;;;;4979472;28;20119;-72
2021/12/29 00:20:31;;;;;;;6.10;4.55;;;-3.60;99.90;;;;;;4991776;28;20050;-72
2021/12/29 00:23:02;;;;;;;6.68;4.75;;;-3.60;99.90;;;;;;4989039;28;20462;-73
2021/12/29 00:25:32;;;;;;;5.03;4.38;;;-3.50;99.90;;;;;;4971150;28;20043;-72
2021/12/29 00:28:01;;;;;;;6.60;4.40;;;-3.50;99.90;;;;;;4981300;28;20148;-72
2021/12/29 00:30:29;;;;;;;5.57;4.20;;;-3.50;99.90;;;;;;4991910;28;20104;-72
2021/12/29 00:32:57;;;;;;;6.22;4.32;;;-3.50;99.90;;;;;;4988688;28;20050;-72
2021/12/29 00:35:44;;;;;;;5.72;4.13;;;-3.50;99.90;;;;;;4984418;28;20039;-71
2021/12/29 00:38:31;;;;;;;4.95;4.00;;;-3.50;99.90;;;;;;4990282;28;20057;-72
2021/12/29 00:41:19;;;;;;;6.20;3.60;;;-3.50;99.90;;;;;;4990624;28;20073;-72
2021/12/29 00:44:06;;;;;;;4.32;3.83;;;-3.50;99.90;;;;;;4987676;28;20079;-72
2021/12/29 00:46:58;;;;;;;;;;;-3.60;99.90;;;;;;5003485;28;20058;-71
2021/12/29 00:49:32;;;;;;;5.35;3.38;;;-3.60;99.90;;;;;;4990493;28;19926;-71
2021/12/29 00:52:00;;;;;;;6.28;3.40;;;-3.60;99.90;;;;;;4991133;28;20057;-71
2021/12/29 00:54:28;;;;;;;4.43;3.33;;;-3.70;99.90;;;;;;4981140;28;20511;-72
2021/12/29 00:56:57;;;;;;;6.30;3.58;;;-3.70;99.90;;;;;;4986933;28;20108;-71
2021/12/29 00:59:24;;;;;;;5.10;3.15;;;-3.80;99.90;;;;;;4989452;28;20077;-71
2021/12/29 01:01:52;;;;;;;5.43;2.90;;;-3.80;99.90;;;;;;4988384;28;20404;-71
2021/12/29 01:04:21;;;;;;;3.97;3.45;;;-3.80;99.90;;;;;;4990021;28;20522;-72
2021/12/29 01:06:49;;;;;;;5.57;2.75;;;-3.80;99.90;;;;;;4986460;28;20043;-71
2021/12/29 01:09:16;;;;;;;5.35;3.15;;;-3.90;99.90;;;;;;4988667;28;20100;-71
2021/12/29 01:11:43;;;;;;;4.05;3.65;;;-3.90;99.90;;;;;;4990664;28;20046;-70
2021/12/29 01:14:12;;;;;;;4.28;2.78;;;-3.80;99.90;;;;;;4989129;28;20062;-71
2021/12/29 01:16:40;;;;;;;4.93;3.50;;;-3.90;99.90;;;;;;4991297;28;20046;-70
2021/12/29 01:19:13;;;;;;;4.88;3.00;;;-3.90;99.90;;;;;;4989901;28;20050;-71
2021/12/29 01:21:44;;;;;;;3.97;2.67;;;-3.90;99.90;;;;;;4988974;28;20092;-71
2021/12/29 01:24:13;;;;;;;5.03;3.30;;;-3.90;99.90;;;;;;4989665;28;20050;-70
2021/12/29 01:26:43;;;;;;;4.13;2.53;;;-3.90;99.90;;;;;;4991405;28;20406;-71
2021/12/29 01:29:13;;;;;;;3.45;2.75;;;-3.90;99.90;;;;;;4989022;28;20049;-71
2021/12/29 01:31:40;;;;;;;3.47;2.90;;;-4.00;99.90;;;;;;4989758;28;20538;-71
2021/12/29 01:34:08;;;;;;;3.97;2.78;;;-4.00;99.90;;;;;;4993499;28;20042;-71
2021/12/29 01:36:38;;;;;;;4.63;2.65;;;-4.00;99.90;;;;;;4993047;28;20061;-71
2021/12/29 01:39:10;;;;;;;2.80;2.53;;;-4.10;99.90;;;;;;4992089;28;20104;-71
2021/12/29 01:41:38;;;;;;;4.07;2.67;;;-4.10;99.90;;;;;;4991856;28;20050;-71
2021/12/29 01:44:06;;;;;;;7.32;3.20;;;-4.10;99.90;;;;;;4995088;28;20050;-71
2021/12/29 01:46:35;;;;;;;4.03;2.30;;;-4.20;99.90;;;;;;4992776;28;20058;-71
2021/12/29 01:49:03;;;;;;;3.70;2.75;;;-4.20;99.90;;;;;;4992811;28;20058;-71
2021/12/29 01:51:31;;;;;;;3.70;2.63;;;-4.20;99.90;;;;;;4993101;28;20507;-71
2021/12/29 01:54:14;;;;;;;3.40;2.28;;;-4.30;99.90;;;;;;4993214;28;20054;-71
2021/12/29 01:56:45;;;;;;;3.08;2.35;;;-4.30;99.90;;;;;;4985280;28;20059;-71
2021/12/29 01:59:14;;;;;;;2.67;2.47;;;-4.30;99.90;;;;;;4989914;28;20134;-70
2021/12/29 02:01:43;;;;;;;2.50;1.80;;;-4.40;99.90;;;;;;4992858;28;20042;-71
2021/12/29 02:04:11;;;;;;;3.08;2.22;;;-4.40;99.90;;;;;;4993301;28;20082;-71
2021/12/29 02:06:38;;;;;;;3.53;2.78;;;-4.40;99.90;;;;;;4992650;28;20445;-71
2021/12/29 02:09:08;;;;;;;3.72;2.72;;;-4.40;99.90;;;;;;4988015;28;20176;-70
2021/12/29 02:11:37;;;;;;;4.45;2.55;;;-4.40;99.90;;;;;;4994207;28;20503;-70
2021/12/29 02:14:07;;;;;;;3.85;2.38;;;-4.40;99.90;;;;;;4992209;28;20054;-70
2021/12/29 02:16:35;;;;;;;3.28;2.90;;;-4.50;99.90;;;;;;4993353;28;20074;-71
2021/12/29 02:19:08;;;;;;;5.13;3.45;;;-4.50;99.90;;;;;;4992259;28;20105;-71
2021/12/29 02:21:39;;;;;;;4.20;3.45;;;-4.50;99.90;;;;;;4994128;28;20525;-71
2021/12/29 02:24:21;;;;;;;4.65;3.70;;;-4.60;99.90;;;;;;4991688;28;20207;-71
2021/12/29 02:26:48;;;;;;;6.63;3.97;;;-4.60;99.90;;;;;;4994404;28;20128;-71
2021/12/29 02:29:18;;;;;;;5.15;3.65;;;-4.60;99.90;;;;;;4990632;28;20047;-71
2021/12/29 02:31:47;;;;;;;4.68;3.95;;;-4.70;99.90;;;;;;4993114;28;20502;-71
2021/12/29 02:34:16;;;;;;;6.00;3.97;;;-4.60;99.90;;;;;;4992889;28;20054;-71
2021/12/29 02:36:47;;;;;;;6.47;3.53;;;-4.60;99.90;;;;;;4993031;28;20132;-71
2021/12/29 02:39:19;;;;;;;4.00;3.22;;;-4.60;99.90;;;;;;4992865;28;20054;-71
2021/12/29 02:41:51;;;;;;;5.60;3.97;;;-4.70;99.90;;;;;;4975499;28;20050;-71
2021/12/29 02:44:24;;;;;;;4.35;3.30;;;-4.70;99.90;;;;;;4991401;28;20050;-71
2021/12/29 02:46:52;;;;;;;;;;;-4.70;99.90;;;;;;4993229;28;20104;-72
2021/12/29 02:49:20;;;;;;;6.78;2.85;;;-4.70;99.90;;;;;;4993624;28;19972;-71
2021/12/29 02:51:49;;;;;;;5.40;3.42;;;-4.80;99.90;;;;;;4985952;28;20046;-71
2021/12/29 02:54:18;;;;;;;3.30;2.88;;;-4.80;99.90;;;;;;4991904;28;20054;-71
2021/12/29 02:56:47;;;;;;;5.00;2.90;;;-4.80;99.90;;;;;;4985033;28;20058;-71
2021/12/29 02:59:14;;;;;;;3.00;2.72;;;-4.80;99.90;;;;;;4989621;28;20114;-71
2021/12/29 03:01:42;;;;;;;3.47;2.70;;;-4.80;99.90;;;;;;4989226;28;20128;-71
2021/12/29 03:04:11;;;;;;;4.63;3.22;;;-4.80;99.90;;;;;;4993499;28;20132;-71
2021/12/29 03:06:38;;;;;;;4.95;2.90;;;-4.80;99.90;;;;;;4991722;28;20061;-70
2021/12/29 03:09:10;;;;;;;3.20;2.90;;;-4.80;99.90;;;;;;4992482;28;20113;-71
2021/12/29 03:11:40;;;;;;;3.42;2.95;;;-4.80;99.90;;;;;;4992904;28;20497;-71
2021/12/29 03:14:08;;;;;;;4.18;3.25;;;-4.90;99.90;;;;;;4990767;28;20165;-70
2021/12/29 03:16:36;;;;;;;5.78;3.55;;;-4.90;99.90;;;;;;4993285;28;20053;-71
2021/12/29 03:19:04;;;;;;;5.70;3.50;;;-4.90;99.90;;;;;;4991994;28;20046;-70
2021/12/29 03:21:33;;;;;;;3.17;2.83;;;-4.90;99.90;;;;;;4992897;28;20046;-71
2021/12/29 03:24:01;;;;;;;5.88;3.47;;;-4.90;99.90;;;;;;4991406;28;20050;-71
2021/12/29 03:26:30;;;;;;;6.93;4.18;;;-4.90;99.90;;;;;;4992157;28;20050;-70
2021/12/29 03:28:59;;;;;;;5.07;3.28;;;-4.90;99.90;;;;;;4991685;28;20495;-70
2021/12/29 03:31:28;;;;;;;6.13;4.03;;;-5.00;99.90;;;;;;4992741;28;20054;-71
2021/12/29 03:33:55;;;;;;;5.63;4.13;;;-4.90;99.90;;;;;;4984207;28;20579;-71
2021/12/29 03:36:22;;;;;;;5.97;4.20;;;-4.90;99.90;;;;;;4988782;28;20050;-72
2021/12/29 03:38:50;;;;;;;3.70;3.08;;;-5.00;99.90;;;;;;4989770;28;20050;-72
2021/12/29 03:41:20;;;;;;;5.95;3.42;;;-5.00;99.90;;;;;;4993253;28;20083;-72
2021/12/29 03:43:49;;;;;;;8.70;3.67;;;-5.00;99.90;;;;;;4991727;28;20426;-72
2021/12/29 03:46:21;;;;;;;4.13;3.20;;;-5.00;99.90;;;;;;4992064;28;20054;-72
2021/12/29 03:48:49;;;;;;;4.80;3.40;;;-5.00;99.90;;;;;;4992712;28;20065;-72
2021/12/29 03:51:16;;;;;;;6.03;3.85;;;-5.00;99.90;;;;;;4991494;28;20172;-72
2021/12/29 03:53:44;;;;;;;4.45;3.42;;;-5.00;99.90;;;;;;4991891;28;20652;-72
2021/12/29 03:56:11;;;;;;;5.22;3.60;;;-5.10;99.90;;;;;;4975818;28;20139;-73
2021/12/29 03:58:41;;;;;;;6.20;3.70;;;-5.10;99.90;;;;;;4975024;28;20047;-73
2021/12/29 04:01:13;;;;;;;5.18;3.40;;;-5.10;99.90;;;;;;4968845;28;20053;-73
2021/12/29 04:03:42;;;;;;;5.30;3.30;;;-5.10;99.90;;;;;;4991171;28;20133;-72
2021/12/29 04:06:11;;;;;;;4.85;3.33;;;-5.10;99.90;;;;;;4988893;28;20073;-72
2021/12/29 04:08:38;;;;;;;4.57;2.83;;;-5.20;99.90;;;;;;4992026;28;20463;-73
2021/12/29 04:11:06;;;;;;;4.63;3.67;;;-5.20;99.90;;;;;;4989872;28;20495;-73
2021/12/29 04:13:35;;;;;;;6.82;4.13;;;-5.20;99.90;;;;;;4997493;28;20046;-72
2021/12/29 04:16:05;;;;;;;10.93;3.88;;;-5.20;99.90;;;;;;4990351;28;20511;-72
2021/12/29 04:18:34;;;;;;;6.18;4.30;;;-5.20;99.90;;;;;;4991807;28;20533;-72
2021/12/29 04:21:04;;;;;;;6.40;4.05;;;-5.30;99.90;;;;;;4990412;28;20054;-71
2021/12/29 04:23:34;;;;;;;8.00;4.28;;;-5.30;99.90;;;;;;4990611;28;20081;-72
2021/12/29 04:26:07;;;;;;;6.80;3.80;;;-5.30;99.90;;;;;;4991163;28;20121;-71
2021/12/29 04:28:35;;;;;;;6.00;4.03;;;-5.40;99.90;;;;;;4990087;28;20518;-72
2021/12/29 04:31:08;;;;;;;5.72;4.07;;;-5.30;99.90;;;;;;4990635;28;20470;-72
2021/12/29 04:33:39;;;;;;;6.78;3.95;;;-5.30;99.90;;;;;;4990312;28;20046;-71
2021/12/29 04:36:08;;;;;;;6.88;4.63;;;-5.40;99.90;;;;;;4991814;28;20495;-73
2021/12/29 04:38:37;;;;;;;7.15;3.88;;;-5.40;99.90;;;;;;4988778;28;20581;-73
2021/12/29 04:41:05;;;;;;;8.77;4.60;;;-5.40;99.90;;;;;;4990541;28;20042;-73
2021/12/29 04:43:32;;;;;;;6.75;3.97;;;-5.40;99.90;;;;;;4989920;28;20046;-72
2021/12/29 04:46:00;;;;;;;6.13;3.60;;;-5.40;99.90;;;;;;4990937;28;20237;-73
2021/12/29 04:48:37;;;;;;;6.78;5.05;;;-5.40;99.90;;;;;;4989669;28;20077;-72
2021/12/29 04:51:14;;;;;;;6.80;3.90;;;-5.40;99.90;;;;;;4980970;28;20057;-71
2021/12/29 04:53:42;;;;;;;9.40;4.82;;;-5.40;99.90;;;;;;4991684;28;20062;-72
2021/12/29 04:56:09;;;;;;;5.43;4.10;;;-5.40;99.90;;;;;;4988387;28;20054;-71
2021/12/29 04:58:36;;;;;;;8.00;4.28;;;-5.40;99.90;;;;;;4987136;28;20498;-72
2021/12/29 05:01:04;;;;;;;5.50;4.15;;;-5.50;99.90;;;;;;4990337;28;20055;-73
2021/12/29 05:03:32;;;;;;;6.03;3.92;;;-5.50;99.90;;;;;;5006253;28;20513;-72
2021/12/29 05:08:24;;;;;;;6.32;3.42;;;-5.40;99.90;;;;;;4986915;28;20469;-72
2021/12/29 05:08:50;;;;;;;10.02;4.95;;;-5.40;99.90;;;;;;4988108;28;20430;-73
2021/12/29 05:11:18;;;;;;;13.73;4.57;;;-5.50;99.90;;;;;;5001306;28;20046;-72
2021/12/29 05:13:52;;;;;;;6.05;4.93;;;-5.50;99.90;;;;;;4991655;28;20407;-73
2021/12/29 05:16:20;;;;;;;7.70;4.55;;;-5.50;99.90;;;;;;4989472;28;20046;-74
2021/12/29 05:18:57;;;;;;;7.88;4.60;;;-5.50;99.90;;;;;;4990277;28;20426;-73
2021/12/29 05:21:27;;;;;;;6.13;2.97;;;-5.40;99.90;;;;;;4971428;28;20042;-74
2021/12/29 05:23:58;;;;;;;7.72;4.45;;;-5.40;99.90;;;;;;4984530;28;20050;-74
2021/12/29 05:26:26;;;;;;;8.60;4.65;;;-5.40;99.90;;;;;;4986873;28;20057;-73
2021/12/29 05:28:53;;;;;;;7.53;4.18;;;-5.40;99.90;;;;;;4988573;28;20057;-74
2021/12/29 05:31:20;;;;;;;8.68;5.38;;;-5.50;99.90;;;;;;4989976;28;20511;-73
2021/12/29 05:33:48;;;;;;;10.93;5.15;;;-5.50;99.90;;;;;;4971995;28;20611;-74
2021/12/29 05:36:42;;;;;;;8.95;4.55;;;-5.50;99.90;;;;;;4991288;28;20128;-73
2021/12/29 05:39:10;;;;;;;;;;;-5.50;99.90;;;;;;4989267;28;20529;-73
2021/12/29 05:41:38;;;;;;;8.60;4.78;;;-5.50;99.90;;;;;;4990758;28;20374;-74
2021/12/29 05:44:06;;;;;;;8.48;4.35;;;-5.60;99.90;;;;;;4984771;28;20042;-72
2021/12/29 05:46:34;;;;;;;9.88;5.20;;;-5.50;99.90;;;;;;4990076;28;20113;-73
2021/12/29 05:49:02;;;;;;;7.28;4.28;;;-5.60;99.90;;;;;;4989890;28;20072;-74
2021/12/29 05:51:29;;;;;;;7.78;4.65;;;-5.60;99.90;;;;;;4987941;28;20666;-74
2021/12/29 05:53:56;;;;;;;10.68;5.80;;;-5.50;99.90;;;;;;4985464;28;20042;-74
2021/12/29 05:56:26;;;;;;;10.73;5.57;;;-5.60;99.90;;;;;;4984743;28;20459;-73
2021/12/29 05:58:56;;;;;;;8.40;4.82;;;-5.50;99.90;;;;;;4987217;28;20074;-74
2021/12/29 06:01:24;;;;;;;9.30;4.65;;;-5.50;99.90;;;;;;4988115;28;20050;-77
2021/12/29 06:03:51;;;;;;;9.88;5.00;;;-5.50;99.90;;;;;;4982517;28;20141;-76
2021/12/29 06:06:19;;;;;;;8.15;4.80;;;-5.50;99.90;;;;;;4990451;28;20065;-77
2021/12/29 06:08:46;;;;;;;7.15;5.00;;;-5.50;99.90;;;;;;4989415;28;20060;-76
2021/12/29 06:11:15;;;;;;;7.88;4.53;;;-5.50;99.90;;;;;;4989695;28;20060;-76
2021/12/29 06:13:43;;;;;;;7.00;5.13;;;-5.50;99.90;;;;;;4991534;28;20427;-75
2021/12/29 06:16:11;;;;;;;5.95;4.30;;;-5.50;99.90;;;;;;4989338;28;20054;-75
2021/12/29 06:18:38;;;;;;;10.20;4.93;;;-5.50;99.90;;;;;;4990981;28;20046;-75
2021/12/29 06:21:05;;;;;;;7.55;4.38;;;-5.50;99.90;;;;;;4984662;28;20049;-76
2021/12/29 06:23:33;;;;;;;13.85;5.20;;;-5.50;99.90;;;;;;4983491;28;20043;-75
2021/12/29 06:26:00;;;;;;;6.90;3.95;;;-5.50;99.90;;;;;;4972871;28;20085;-74
2021/12/29 06:28:27;;;;;;;6.75;4.55;;;-5.50;99.90;;;;;;4990368;28;20057;-75
2021/12/29 06:30:56;;;;;;;7.40;4.55;;;-5.50;99.90;;;;;;4991896;28;20051;-73
2021/12/29 06:33:23;;;;;;;10.30;5.03;;;-5.60;99.90;;;;;;4993444;28;20054;-74
2021/12/29 06:35:50;;;;;;;11.40;5.60;;;-5.60;99.90;;;;;;4993206;28;20109;-74
2021/12/29 06:38:18;;;;;;;10.82;4.70;;;-5.60;99.90;;;;;;4988568;28;20050;-74
2021/12/29 06:40:45;;;;;;;10.13;4.97;;;-5.60;99.90;;;;;;4976488;28;20149;-73
2021/12/29 06:43:13;;;;;;;8.75;4.65;;;-5.60;99.90;;;;;;4998502;28;20458;-74
2021/12/29 06:45:40;;;;;;;8.73;5.03;;;-5.50;99.90;;;;;;5013008;28;20056;-75
2021/12/29 06:48:09;;;;;;;9.60;4.88;;;-5.50;99.90;;;;;;4997435;28;20105;-74
2021/12/29 06:50:36;;;;;;;6.55;4.43;;;-5.50;99.90;;;;;;4991906;28;20054;-74
2021/12/29 06:53:04;;;;;;;7.55;4.50;;;-5.50;99.90;;;;;;4988164;28;20496;-73
2021/12/29 06:55:34;;;;;;;9.60;5.43;;;-5.50;99.90;;;;;;4960827;28;20052;-73
2021/12/29 06:58:01;;;;;;;10.73;4.65;;;-5.50;99.90;;;;;;4990011;28;20593;-75
2021/12/29 07:00:29;;;;;;;9.45;4.95;;;-5.50;99.90;;;;;;4991315;28;20499;-74
2021/12/29 07:02:57;;;;;;;10.07;5.40;;;-5.50;99.90;;;;;;4981424;28;20050;-76
2021/12/29 07:05:26;;;;;;;13.32;5.82;;;-5.50;99.90;;;;;;4992248;28;20081;-75
2021/12/29 07:07:54;;;;;;;10.20;5.22;;;-5.50;99.90;;;;;;4991018;28;20101;-75
2021/12/29 07:10:22;;;;;;;6.90;4.72;;;-5.50;99.90;;;;;;4989775;28;20609;-75
2021/12/29 07:12:50;;;;;;;9.75;4.82;;;-5.50;99.90;;;;;;5004339;28;20170;-76
2021/12/29 07:15:18;;;;;;;9.43;5.38;;;-5.50;99.90;;;;;;4989418;28;20510;-73
2021/12/29 07:17:45;;;;;;;9.93;4.85;;;-5.50;99.90;;;;;;4985364;28;20105;-74
2021/12/29 07:20:13;;;;;;;8.55;5.68;;;-5.50;99.90;;;;;;4989640;28;20056;-75
2021/12/29 07:22:42;;;;;;;7.45;4.72;;;-5.50;99.90;;;;;;4984181;28;20046;-75
2021/12/29 07:25:10;;;;;;;8.50;4.20;;;-5.50;99.90;;;;;;4986646;28;20101;-72
2021/12/29 07:27:37;;;;;;;10.68;4.93;;;-5.40;99.90;;;;;;4991100;28;20050;-73
2021/12/29 07:30:07;;;;;;;11.93;5.60;;;-5.30;99.90;;;;;;4990946;28;20038;-71
2021/12/29 07:32:34;;;;;;;8.32;4.72;;;-5.30;99.90;;;;;;4992262;28;20054;-73
2021/12/29 07:35:01;;;;;;;6.95;3.95;;;-5.20;99.90;;;;;;4989019;28;20053;-74
2021/12/29 07:37:30;;;;;;;7.00;4.10;;;-5.10;99.90;;;;;;4991474;28;20061;-71
2021/12/29 07:40:01;;;;;;;8.48;4.75;;;-5.00;99.90;;;;;;4992111;28;20458;-72
2021/12/29 07:42:30;;;;;;;;;;;-5.00;99.90;;;;;;4993196;28;20061;-71
2021/12/29 07:45:00;;;;;;;7.00;4.70;;;-5.00;99.90;;;;;;4989257;28;19925;-74
2021/12/29 07:47:27;;;;;;;5.88;4.45;;;-5.00;99.90;;;;;;4984890;28;20541;-74
2021/12/29 07:49:55;;;;;;;8.70;5.38;;;-5.00;99.90;;;;;;4982424;28;20399;-73
2021/12/29 07:52:22;;;;;;;9.25;4.70;;;-5.00;99.90;;;;;;4990350;28;20049;-74
2021/12/29 07:54:50;;;;;;;7.13;4.63;;;-5.00;99.90;;;;;;4992452;28;20050;-73
2021/12/29 07:57:19;;;;;;;7.90;4.40;;;-5.10;99.90;;;;;;4992358;28;20058;-73
2021/12/29 07:59:47;;;;;;;8.30;4.00;;;-5.10;99.90;;;;;;4992712;28;20042;-74
2021/12/29 08:02:19;;;;;;;8.65;5.82;;;-5.10;99.90;;;;;;4990729;28;20058;-74
2021/12/29 08:04:48;;;;;;;8.50;4.38;;;-5.20;99.90;;;;;;4988831;28;20058;-72
2021/12/29 08:07:15;;;;;;;7.60;4.65;;;-5.20;99.90;;;;;;4984997;28;20089;-73
2021/12/29 08:09:43;;;;;;;9.38;4.57;;;-5.20;99.90;;;;;;4990080;28;20065;-74
2021/12/29 08:12:10;;;;;;;7.28;3.85;;;-5.20;99.90;;;;;;4989638;28;20057;-74
2021/12/29 08:14:39;;;;;;;8.35;4.72;;;-5.30;99.90;;;;;;4989914;28;20072;-74
2021/12/29 08:17:07;;;;;;;10.48;4.93;;;-5.30;99.90;;;;;;4989746;28;20050;-73
2021/12/29 08:19:35;;;;;;;9.48;4.95;;;-5.30;99.90;;;;;;4990819;28;20132;-74
2021/12/29 08:22:03;;;;;;;10.05;4.82;;;-5.30;99.90;;;;;;4989025;28;20511;-73
2021/12/29 08:24:30;;;;;;;11.45;4.30;;;-5.30;99.90;;;;;;4991793;28;20045;-73
2021/12/29 08:26:57;;;;;;;7.72;4.80;;;-5.30;99.90;;;;;;4991803;28;20062;-72
2021/12/29 08:29:25;;;;;;;7.55;4.43;;;-5.30;99.90;;;;;;4990543;28;20050;-75
2021/12/29 08:31:55;;;;;;;6.88;3.95;;;-5.30;99.90;;;;;;4972516;28;20054;-74
2021/12/29 08:34:23;;;;;;;7.82;4.72;;;-5.30;99.90;;;;;;4990522;28;20050;-73
2021/12/29 08:36:51;;;;;;;7.50;3.35;;;-5.30;99.90;;;;;;4985090;28;20051;-75
2021/12/29 08:39:19;;;;;;;8.98;4.05;;;-5.30;99.90;;;;;;4989532;28;20050;-74
2021/12/29 08:41:46;;;;;;;7.13;3.78;;;-5.30;99.90;;;;;;4991327;28;20046;-75
2021/12/29 08:44:14;;;;;;;8.60;4.40;;;-5.30;99.90;;;;;;4983604;28;20061;-72
2021/12/29 08:46:42;;;;;;;5.30;3.25;;;-5.20;99.90;;;;;;4983222;28;20507;-77
2021/12/29 08:49:10;;;;;;;12.05;4.88;;;-5.20;99.90;;;;;;4984778;28;20046;-72
2021/12/29 08:51:38;;;;;;;7.35;4.15;;;-5.20;99.90;;;;;;4977344;28;20525;-74
2021/12/29 08:54:05;;;;;;;9.10;4.68;;;-5.10;99.90;;;;;;4980925;28;20133;-73
2021/12/29 08:56:33;;;;;;;5.57;3.50;;;-5.10;99.90;;;;;;4972723;28;20049;-73
2021/12/29 08:59:01;;;;;;;6.07;3.60;;;-5.10;99.90;;;;;;4987871;28;20050;-73
2021/12/29 09:01:28;;;;;;;6.97;3.47;;;-5.10;99.90;;;;;;4988450;28;20046;-71
2021/12/29 09:03:56;;;;;;;6.95;4.00;;;-5.00;99.90;;;;;;4985935;28;20097;-73
2021/12/29 09:06:24;;;;;;;4.65;3.13;;;-5.00;99.90;;;;;;4986798;28;20057;-71
2021/12/29 09:08:54;;;;;;;8.13;4.38;;;-5.00;99.90;;;;;;4989916;28;20050;-72
2021/12/29 09:11:22;;;;;;;8.13;4.30;;;-4.90;99.90;;;;;;4987773;28;20046;-73
2021/12/29 09:13:49;;;;;;;7.72;4.68;;;-4.90;99.90;;;;;;4972389;28;20145;-73
2021/12/29 09:16:16;;;;;;;7.55;3.83;;;-4.90;99.90;;;;;;4986210;28;20148;-71
2021/12/29 09:18:44;;;;;;;8.40;3.90;;;-4.90;99.90;;;;;;5004875;28;20433;-72
2021/12/29 09:21:15;;;;;;;5.10;3.13;;;-4.90;99.90;;;;;;4988974;28;20042;-74
2021/12/29 09:23:44;;;;;;;9.50;4.20;;;-4.90;99.90;;;;;;4988388;28;20062;-73
2021/12/29 09:26:13;;;;;;;7.20;3.78;;;-4.90;99.90;;;;;;4985923;28;20125;-74
2021/12/29 09:28:42;;;;;;;6.70;3.78;;;-4.90;99.90;;;;;;4990074;28;20137;-74
2021/12/29 09:31:09;;;;;;;7.80;4.07;;;-4.90;99.90;;;;;;4988791;28;20082;-73
2021/12/29 09:33:38;;;;;;;7.00;3.78;;;-4.80;99.90;;;;;;4973595;28;20117;-73
2021/12/29 09:36:06;;;;;;;7.10;3.90;;;-4.80;99.90;;;;;;4990586;28;20054;-72
2021/12/29 09:38:36;;;;;;;6.50;3.70;;;-4.80;99.90;;;;;;4990989;28;20050;-72
2021/12/29 09:41:08;;;;;;;7.47;3.75;;;-4.80;99.90;;;;;;4988897;28;20486;-72
2021/12/29 09:43:37;;;;;;;5.25;3.38;;;-4.80;99.90;;;;;;4983921;28;20093;-72
2021/12/29 09:46:06;;;;;;;5.15;3.20;;;-4.80;99.90;;;;;;4991008;28;20056;-73
2021/12/29 09:48:35;;;;;;;4.78;2.85;;;-4.80;99.90;;;;;;4987833;28;20534;-73
2021/12/29 09:51:05;;;;;;;12.75;4.05;;;-4.70;99.90;;;;;;4989501;28;20142;-72
2021/12/29 09:53:33;;;;;;;4.60;2.78;;;-4.80;99.90;;;;;;4983507;28;20062;-72
2021/12/29 09:56:01;;;;;;;5.50;3.55;;;-4.80;99.90;;;;;;4975198;28;20043;-75
2021/12/29 09:58:29;;;;;;;6.90;3.85;;;-4.80;99.90;;;;;;4986739;28;20597;-73
2021/12/29 10:01:04;;;;;;;4.65;3.55;;;-4.80;99.90;;;;;;4994726;28;20505;-75
2021/12/29 10:03:33;;;;;;;5.13;3.65;;;-4.80;99.90;;;;;;4991933;28;20057;-73
2021/12/29 10:06:10;;;;;;;4.80;2.78;;;-4.80;99.90;;;;;;4993235;28;20072;-74
2021/12/29 10:08:41;;;;;;;4.20;3.03;;;-4.80;99.90;;;;;;4959909;28;20145;-74
2021/12/29 10:11:15;;;;;;;6.65;3.20;;;-4.80;99.90;;;;;;4989172;28;20058;-74
2021/12/29 10:13:55;;;;;;;8.13;3.95;;;-4.70;99.90;;;;;;4991157;28;20050;-75
2021/12/29 10:16:32;;;;;;;4.32;3.30;;;-4.70;99.90;;;;;;4991161;28;20096;-75
2021/12/29 10:19:02;;;;;;;6.15;3.70;;;-4.70;99.90;;;;;;4991884;28;20053;-75
2021/12/29 10:21:30;;;;;;;5.75;3.35;;;-4.70;99.90;;;;;;4972609;28;20137;-75
2021/12/29 10:24:01;;;;;;;7.03;2.88;;;-4.70;99.90;;;;;;4993034;28;20149;-75
2021/12/29 10:26:31;;;;;;;7.10;3.13;;;-4.70;99.90;;;;;;4985103;28;20038;-74
2021/12/29 10:29:05;;;;;;;5.38;3.55;;;-4.70;99.90;;;;;;4991908;28;20098;-74
2021/12/29 10:31:38;;;;;;;9.15;4.13;;;-4.60;99.90;;;;;;4985438;28;20136;-74
2021/12/29 10:34:10;;;;;;;4.63;3.35;;;-4.70;99.90;;;;;;4974270;28;20055;-75
2021/12/29 10:36:42;;;;;;;7.38;3.97;;;-4.60;99.90;;;;;;4974021;28;20055;-73
2021/12/29 10:39:14;;;;;;;6.30;2.60;;;-4.60;99.90;;;;;;4978314;28;20458;-72
2021/12/29 10:41:50;;;;;;;6.43;3.03;;;-4.60;99.90;;;;;;4975743;28;20073;-73
2021/12/29 10:44:30;;;;;;;5.95;3.50;;;-4.60;99.90;;;;;;4992210;28;20053;-73
2021/12/29 10:46:58;;;;;;;8.13;3.55;;;-4.70;99.90;;;;;;4974039;28;20101;-72
2021/12/29 10:49:28;;;;;;;6.45;4.18;;;-4.60;99.90;;;;;;4991135;28;20519;-74
2021/12/29 10:51:58;;;;;;;6.85;3.80;;;-4.70;99.90;;;;;;4992242;28;20489;-72
2021/12/29 10:54:29;;;;;;;5.03;3.30;;;-4.70;99.90;;;;;;4992177;28;20054;-72
2021/12/29 10:57:04;;;;;;;5.72;3.15;;;-4.60;99.90;;;;;;4981036;28;20411;-75
2021/12/29 10:59:41;;;;;;;8.90;3.80;;;-4.60;99.90;;;;;;4979961;28;20043;-73
2021/12/29 11:02:11;;;;;;;7.32;3.53;;;-4.70;99.90;;;;;;4975313;28;20057;-74
2021/12/29 11:04:38;;;;;;;6.60;3.70;;;-4.60;99.90;;;;;;4971437;28;20050;-73
2021/12/29 11:07:07;;;;;;;5.75;3.63;;;-4.60;99.90;;;;;;4989754;28;20042;-73
2021/12/29 11:09:38;;;;;;;7.97;3.65;;;-4.60;99.90;;;;;;4992508;28;20519;-72
2021/12/29 11:12:13;;;;;;;5.40;2.97;;;-4.60;99.90;;;;;;4992543;28;20061;-73
2021/12/29 11:14:43;;;;;;;7.53;3.97;;;-4.60;99.90;;;;;;4993727;28;20425;-74
2021/12/29 11:17:14;;;;;;;5.93;3.20;;;-4.60;99.90;;;;;;4991411;28;20043;-74
2021/12/29 11:19:52;;;;;;;3.75;2.58;;;-4.60;99.90;;;;;;4987354;28;20054;-75
2021/12/29 11:22:23;;;;;;;6.22;3.22;;;-4.60;99.90;;;;;;4991859;28;20054;-73
2021/12/29 11:24:57;;;;;;;6.00;3.33;;;-4.60;99.90;;;;;;4993370;28;20137;-75
2021/12/29 11:27:27;;;;;;;5.35;3.67;;;-4.60;99.90;;;;;;4984480;28;20050;-74
2021/12/29 11:29:59;;;;;;;7.07;3.13;;;-4.60;99.90;;;;;;4983098;28;20156;-74
2021/12/29 11:32:31;;;;;;;7.80;3.60;;;-4.60;99.90;;;;;;4992891;28;20077;-74
2021/12/29 11:35:09;;;;;;;5.43;3.42;;;-4.60;99.90;;;;;;4991664;28;20058;-75
2021/12/29 11:37:40;;;;;;;11.63;3.75;;;-4.60;99.90;;;;;;4981634;28;20050;-74
2021/12/29 11:40:12;;;;;;;5.50;3.00;;;-4.60;99.90;;;;;;4988175;28;20148;-75
2021/12/29 11:42:39;;;;;;;5.55;3.08;;;-4.70;99.90;;;;;;4990589;28;20060;-71
2021/12/29 11:45:11;;;;;;;8.50;3.30;;;-4.70;99.90;;;;;;4989870;28;20088;-73
2021/12/29 11:47:40;;;;;;;8.13;3.67;;;-4.70;99.90;;;;;;4992916;28;20144;-73
2021/12/29 11:50:10;;;;;;;6.13;3.55;;;-4.60;99.90;;;;;;4974155;28;20081;-72
2021/12/29 11:53:07;;;;;;;7.72;3.70;;;-4.60;99.90;;;;;;4991304;28;20050;-73
2021/12/29 11:55:41;;;;;;;8.63;4.38;;;-4.60;99.90;;;;;;4988860;28;20153;-72
2021/12/29 11:58:11;;;;;;;5.43;3.78;;;-4.70;99.90;;;;;;4993209;28;20502;-73
2021/12/29 12:00:41;;;;;;;6.10;3.03;;;-4.70;99.90;;;;;;4991417;28;20121;-73
2021/12/29 12:03:14;;;;;;;5.55;3.50;;;-4.70;99.90;;;;;;4988994;28;20401;-71
2021/12/29 12:05:44;;;;;;;6.22;3.33;;;-4.80;99.90;;;;;;4983908;28;20059;-71
2021/12/29 12:08:14;;;;;;;5.45;3.15;;;-4.80;99.90;;;;;;5007872;28;20058;-71
2021/12/29 12:10:43;;;;;;;4.40;2.60;;;-4.70;99.90;;;;;;4992322;28;20062;-72
2021/12/29 12:13:25;;;;;;;8.45;3.05;;;-4.70;99.90;;;;;;4990492;28;20054;-72
2021/12/29 12:16:05;;;;;;;6.72;3.47;;;-4.70;99.90;;;;;;4992175;28;20048;-72
2021/12/29 12:18:50;;;;;;;7.03;3.88;;;-4.70;99.90;;;;;;4991732;28;20046;-74
2021/12/29 12:21:24;;;;;;;9.73;3.97;;;-4.70;99.90;;;;;;4990811;28;20145;-73
2021/12/29 12:23:52;;;;;;;7.13;3.92;;;-4.70;99.90;;;;;;4990098;28;20050;-71
2021/12/29 12:26:22;;;;;;;6.78;4.25;;;-4.70;99.90;;;;;;4981831;28;20422;-72
2021/12/29 12:28:54;;;;;;;8.75;4.10;;;-4.70;99.90;;;;;;4989023;28;20050;-71
2021/12/29 12:31:26;;;;;;;5.00;3.15;;;-4.70;99.90;;;;;;4989039;28;20189;-73
2021/12/29 12:33:55;;;;;;;6.45;3.33;;;-4.70;99.90;;;;;;4990539;28;20514;-72
2021/12/29 12:36:32;;;;;;;7.15;3.35;;;-4.80;99.90;;;;;;4973002;28;20064;-74
2021/12/29 12:39:09;;;;;;;4.90;3.35;;;-4.80;99.90;;;;;;4979068;28;20057;-74
2021/12/29 12:41:40;;;;;;;7.78;3.53;;;-4.80;99.90;;;;;;4987192;28;20514;-74
2021/12/29 12:44:08;;;;;;;10.80;4.35;;;-4.90;99.90;;;;;;4974800;28;20050;-75
2021/12/29 12:46:40;;;;;;;9.68;4.15;;;-4.90;99.90;;;;;;4991725;28;20043;-76
2021/12/29 12:49:20;;;;;;;16.05;4.65;;;-4.90;99.90;;;;;;4988229;28;20047;-75
2021/12/29 12:51:59;;;;;;;6.35;3.65;;;-4.90;99.90;;;;;;4975294;28;20050;-73
2021/12/29 12:54:30;;;;;;;5.80;3.67;;;-5.00;99.90;;;;;;4980561;28;20439;-73
2021/12/29 12:56:58;;;;;;;7.45;3.70;;;-4.90;99.90;;;;;;4980319;28;20601;-73
2021/12/29 12:59:36;;;;;;;9.50;3.45;;;-5.00;99.90;;;;;;4990130;28;20038;-72
2021/12/29 13:02:16;;;;;;;5.72;3.67;;;-5.00;99.90;;;;;;4984656;28;20058;-75